Esplugues de Llobregat, Spain
Current Conditions -  °F | °C
As of 8:30 AM on Monday 22 Dec 2014 (Local Time) from LEBL Reporting Station
Clear Clear  
Wind Chill: 33°   Ceiling: Unl
Heat Index: 41°   Visibility: 6mi
Dew Point: 36°   Wind: 14mph
Humidity: 81%   Direction: 330°NNW
Pressure: 30.48"   Gusts: NA
Location:  41.38°N, 2.09°E
Report Text: LEBL 220730Z 33012KT CAVOK 05/02 Q1032 NOSIG
Loading
Personal Weather Stations






























Interactive Weather Map New forecast layout! Learn more

10-Day Weather Forecast

Advertisements
Track Severe Weather on mobile